Historyczne dane pomiarowe

Dodano dane terminowe – wersja testowa.

Dane z okresu 1951-2019

Wersja bazy: 1.34 [2019-03-16, lista zmian], aktualizacja planowana na 2019-04-15

Dane meteo z obszaru Polski uzyskane na podstawie danych udostępnionych przez Instytut Meteorologii i Gospodarki Wodnej – Państwowy Instytut Badawczy.

 

Wybierz Datę:    

       

TemperaturaWilgotnośćZachmurzenieWiatrCiśnienieWidzialnośćZjawiska
 Data    tng td wb rh cc ccl cl cm ch dir g1 g2 mslp ppp      
1999-07-15 00:00:00 14.2--- 12.8 13.492wxwxwx3wx--1008.7 984.3 0.0---wxw1
1999-07-15 01:00:00 13.4--- 12.2 12.792wxwx4wx--1008.7 984.3----wx
1999-07-15 02:00:00 14.6--- 12.9 13.690wxwxwx3wx--1009.1 984.8----wx
1999-07-15 03:00:00 14.7--- 13.0 13.790wxwxwx3wx--1009.8 985.5----wx
1999-07-15 04:00:00 15.1--- 13.1 13.988wxwxwx4wx--1010.1 985.8----wx
1999-07-15 05:00:00 15.4--- 12.9 13.985wxwxwx3wx--1010.3 986.0----wx
1999-07-15 06:00:00 16.4--- 11.8 13.774wxwxwxwx5wx--1010.9 986.7 0.0---wx
1999-07-15 07:00:00 17.8--- 10.7 13.763wxwxwxwx5wx--1011.1 987.0----wx
1999-07-15 08:00:00 18.6--- 10.4 13.959wxwxwxwx6wx--1011.5 987.4----wx
1999-07-15 09:00:00 19.0--- 10.5 14.158wxwxwxwxwx5wx--1011.4 987.4----wx
1999-07-15 10:00:00 19.5--- 11.7 14.961wxwxwxwx4wx--1011.8 987.8----wx
1999-07-15 11:00:00 18.6--- 11.8 14.665wxwxwxwx4wx--1012.2 988.1----wx
1999-07-15 12:00:00 16.4--- 12.9 14.380wxwxwxwx2wx--1012.9 988.6 0.0---wx
1999-07-15 13:00:00 17.2--- 11.7 14.070wxwxwxwx4wx--1012.9 988.7----wx
1999-07-15 14:00:00 19.2--- 14.3 16.273wxwxwxwx1wx--1012.6 988.6----wx
1999-07-15 15:00:00 19.4--- 14.7 16.574wxwxwxwx2wx--1012.6 988.6----wx
1999-07-15 16:00:00 18.8--- 12.4 15.067wxwxwxwx3wx--1013.0 988.9----wx
1999-07-15 17:00:00 16.8--- 12.8 14.477wxwxwxwx4wx--1013.4 989.1----wx
1999-07-15 18:00:00 16.5--- 13.3 14.682wxwxwxwx2wx--1013.7 989.4 0.0---wxw1
1999-07-15 19:00:00 15.4--- 12.5 13.783wxwxwxwx3wx--1014.4 990.0----wx
1999-07-15 20:00:00 15.0--- 13.0 13.888wxwxwxwx2wx--1014.6 990.2----wx
1999-07-15 21:00:00 14.3--- 12.9 13.592wxwxwx2wx--1015.0 990.5----wx
1999-07-15 22:00:00 13.1--- 11.7 12.391wxwxwx3wx--1015.3 990.7----wx
1999-07-15 23:00:00 11.9--- 10.8 11.393wxwxwx3wx--1015.8 991.1----wx

 

Źródłem pochodzenia danych jest Instytut Meteorologii i Gospodarki Wodnej – Państwowy Instytut Badawczy. Dane Instytutu Meteorologii i Gospodarki Wodnej – Państwowego Instytutu Badawczego zostały przetworzone.

Dane źródłowe można odnaleźć na stronie https://dane.imgw.pl